createdAt,value
2023-03-12T00:02:24.130Z,100122.34
2023-03-12T00:04:51.896Z,100122.44
2023-03-12T00:07:19.591Z,100122.66
2023-03-12T00:09:48.653Z,100119.19
2023-03-12T00:12:16.341Z,100126.84
2023-03-12T00:14:44.038Z,100137.47
2023-03-12T00:17:11.708Z,100134.91
2023-03-12T00:19:39.387Z,100128.19
2023-03-12T00:22:07.146Z,100122.38
2023-03-12T00:24:34.859Z,100124.19
2023-03-12T00:27:07.882Z,100129.59
2023-03-12T00:29:36.504Z,100133.56
2023-03-12T00:32:04.227Z,100132.78
2023-03-12T00:34:32.034Z,100132.00
2023-03-12T00:36:59.761Z,100131.22
2023-03-12T00:39:27.640Z,100138.88
2023-03-12T00:41:55.438Z,100137.94
2023-03-12T00:44:24.556Z,100134.53
2023-03-12T00:46:52.304Z,100132.84
2023-03-12T00:49:20.182Z,100124.78
2023-03-12T00:51:47.951Z,100128.13
2023-03-12T00:54:15.692Z,100124.72
2023-03-12T00:56:43.368Z,100130.69
2023-03-12T00:59:11.103Z,100128.94
2023-03-12T01:01:40.263Z,100129.59
2023-03-12T01:04:08.062Z,100127.69
2023-03-12T01:06:36.012Z,100127.63
2023-03-12T01:09:05.194Z,100132.75
2023-03-12T01:11:33.977Z,100128.34
2023-03-12T01:14:02.861Z,100131.63
2023-03-12T01:16:31.820Z,100130.00
2023-03-12T01:19:03.181Z,100122.00
2023-03-12T01:21:31.756Z,100123.69
2023-03-12T01:24:00.068Z,100123.44
2023-03-12T01:26:28.149Z,100119.66
2023-03-12T01:28:55.822Z,100122.28
2023-03-12T01:31:23.778Z,100129.09
2023-03-12T01:33:52.750Z,100129.66
2023-03-12T01:36:24.117Z,100127.91
2023-03-12T01:38:52.676Z,100129.47
2023-03-12T01:41:21.036Z,100120.75
2023-03-12T01:43:48.752Z,100117.44
2023-03-12T01:46:30.818Z,100111.59
2023-03-12T01:49:02.847Z,100111.59
2023-03-12T01:51:36.360Z,100114.94
2023-03-12T01:54:08.648Z,100113.41
2023-03-12T01:56:38.870Z,100104.78
2023-03-12T01:59:11.888Z,100102.09
2023-03-12T02:01:40.412Z,100100.25
2023-03-12T02:04:08.350Z,100099.47
2023-03-12T02:06:43.790Z,100099.41
2023-03-12T02:09:12.659Z,100097.63
2023-03-12T02:11:40.484Z,100094.88
2023-03-12T02:14:08.174Z,100094.81
2023-03-12T02:16:36.094Z,100097.31
2023-03-12T02:19:09.751Z,100091.28
2023-03-12T02:21:40.590Z,100086.94
2023-03-12T02:24:15.915Z,100090.44
2023-03-12T02:26:45.241Z,100087.88
2023-03-12T02:29:13.759Z,100097.03
2023-03-12T02:31:45.352Z,100099.66
2023-03-12T02:34:13.309Z,100091.22
2023-03-12T02:36:41.095Z,100083.03
2023-03-12T02:39:08.915Z,100075.56
2023-03-12T02:41:40.712Z,100085.25
2023-03-12T02:44:14.112Z,100085.97
2023-03-12T02:46:43.864Z,100077.22
2023-03-12T02:49:13.330Z,100078.91
2023-03-12T02:51:41.647Z,100070.34
2023-03-12T02:54:10.315Z,100074.69
2023-03-12T02:56:38.739Z,100062.31
2023-03-12T02:59:07.325Z,100068.63
2023-03-12T03:01:36.834Z,100063.44
2023-03-12T03:04:06.733Z,100066.84
2023-03-12T03:06:35.496Z,100071.91
2023-03-12T03:09:03.640Z,100068.22
2023-03-12T03:11:31.395Z,100076.22
2023-03-12T03:13:59.249Z,100081.50
2023-03-12T03:16:27.184Z,100072.75
2023-03-12T03:18:56.290Z,100081.91
2023-03-12T03:21:24.020Z,100081.75
2023-03-12T03:23:52.683Z,100087.81
2023-03-12T03:26:24.815Z,100086.03
2023-03-12T03:28:53.003Z,100095.00
2023-03-12T03:31:21.317Z,100090.50
2023-03-12T03:33:49.957Z,100087.88
2023-03-12T03:36:19.271Z,100074.91
2023-03-12T03:38:49.465Z,100071.69
2023-03-12T03:41:18.194Z,100066.66
2023-03-12T03:43:45.921Z,100064.03
2023-03-12T03:46:14.617Z,100066.50
2023-03-12T03:48:43.077Z,100068.09
2023-03-12T03:51:11.605Z,100067.34
2023-03-12T03:53:41.097Z,100064.69
2023-03-12T03:56:10.831Z,100062.13
2023-03-12T03:58:39.148Z,100063.78
2023-03-12T04:01:07.371Z,100066.13
2023-03-12T04:03:35.793Z,100068.53
2023-03-12T04:06:06.506Z,100074.22
2023-03-12T04:08:35.635Z,100071.38
2023-03-12T04:11:09.939Z,100063.25
2023-03-12T04:13:37.998Z,100062.34
2023-03-12T04:16:06.384Z,100076.34
2023-03-12T04:18:36.032Z,100072.91
2023-03-12T04:21:03.848Z,100080.63
2023-03-12T04:23:31.625Z,100079.41
2023-03-12T04:25:59.398Z,100088.06
2023-03-12T04:28:28.641Z,100090.69
2023-03-12T04:30:57.009Z,100090.75
2023-03-12T04:33:24.709Z,100090.41
2023-03-12T04:35:53.137Z,100086.28
2023-03-12T04:38:21.607Z,100084.47
2023-03-12T04:40:57.949Z,100080.97
2023-03-12T04:43:25.683Z,100077.53
2023-03-12T04:45:55.058Z,100075.97
2023-03-12T04:48:23.017Z,100077.06
2023-03-12T04:50:51.227Z,100072.13
2023-03-12T04:53:19.206Z,100072.44
2023-03-12T04:55:47.050Z,100064.84
2023-03-12T04:58:14.885Z,100065.84
2023-03-12T05:00:43.452Z,100056.38
2023-03-12T05:03:13.762Z,100061.59
2023-03-12T05:05:41.615Z,100058.16
2023-03-12T05:08:09.513Z,100053.19
2023-03-12T05:10:37.256Z,100052.16
2023-03-12T05:13:05.007Z,100047.78
2023-03-12T05:15:32.747Z,100041.75
2023-03-12T05:18:00.449Z,100048.75
2023-03-12T05:20:29.482Z,100041.03
2023-03-12T05:22:57.153Z,100035.72
2023-03-12T05:25:24.858Z,100036.84
2023-03-12T05:27:52.604Z,100036.97
2023-03-12T05:30:20.480Z,100036.06
2023-03-12T05:32:48.305Z,100037.84
2023-03-12T05:35:16.418Z,100033.44
2023-03-12T05:37:45.451Z,100031.59
2023-03-12T05:40:14.342Z,100034.16
2023-03-12T05:42:42.189Z,100031.41
2023-03-12T05:45:11.033Z,100034.16
2023-03-12T05:47:38.868Z,100034.22
2023-03-12T05:50:07.343Z,100033.19
2023-03-12T05:52:35.198Z,100036.84
2023-03-12T05:55:04.841Z,100036.78
2023-03-12T05:57:32.839Z,100044.66
2023-03-12T06:00:00.558Z,100040.97
2023-03-12T06:02:28.369Z,100044.22
2023-03-12T06:04:58.329Z,100044.94
2023-03-12T06:07:26.183Z,100043.94
2023-03-12T06:09:53.948Z,100037.66
2023-03-12T06:12:23.148Z,100040.09
2023-03-12T06:14:50.887Z,100039.03
2023-03-12T06:17:18.584Z,100040.72
2023-03-12T06:19:46.288Z,100040.66
2023-03-12T06:22:14.086Z,100037.31
2023-03-12T06:24:42.594Z,100030.88
2023-03-12T06:27:10.349Z,100043.06
2023-03-12T06:29:39.468Z,100041.31
2023-03-12T06:32:07.868Z,100040.53
2023-03-12T06:34:35.993Z,100030.81
2023-03-12T06:37:03.843Z,100032.56
2023-03-12T06:39:31.560Z,100040.38
2023-03-12T06:41:59.278Z,100038.41
2023-03-12T06:44:27.006Z,100039.25
2023-03-12T06:46:56.480Z,100026.84
2023-03-12T06:49:24.460Z,100027.63
2023-03-12T06:51:52.258Z,100031.88
2023-03-12T06:54:19.938Z,100020.53
2023-03-12T06:56:47.635Z,100019.69
2023-03-12T06:59:15.421Z,100029.19
2023-03-12T07:01:43.107Z,100036.06
2023-03-12T07:04:12.183Z,100031.03
2023-03-12T07:06:40.025Z,100038.75
2023-03-12T07:09:08.046Z,100028.06
2023-03-12T07:11:35.762Z,100028.91
2023-03-12T07:14:03.483Z,100033.91
2023-03-12T07:16:31.400Z,100035.63
2023-03-12T07:18:59.187Z,100045.91
2023-03-12T07:21:28.595Z,100042.78
2023-03-12T07:23:56.868Z,100044.47
2023-03-12T07:26:24.908Z,100037.53
2023-03-12T07:28:53.194Z,100036.72
2023-03-12T07:31:21.148Z,100033.06
2023-03-12T07:33:49.012Z,100025.28
2023-03-12T07:36:17.891Z,100026.28
2023-03-12T07:38:47.119Z,100023.44
2023-03-12T07:41:14.891Z,100029.38
2023-03-12T07:43:42.622Z,100021.28
2023-03-12T07:46:10.407Z,100028.97
2023-03-12T07:48:38.672Z,100032.28
2023-03-12T07:51:07.243Z,100033.06
2023-03-12T07:53:35.057Z,100029.44
2023-03-12T07:56:04.200Z,100038.22
2023-03-12T07:58:32.240Z,100037.94
2023-03-12T08:01:00.128Z,100038.66
2023-03-12T08:03:28.011Z,100038.66
2023-03-12T08:06:02.222Z,100037.56
2023-03-12T08:08:31.338Z,100039.19
2023-03-12T08:10:59.317Z,100041.63
2023-03-12T08:13:28.551Z,100036.31
2023-03-12T08:15:56.475Z,100038.94
2023-03-12T08:18:24.863Z,100038.06
2023-03-12T08:20:53.815Z,100038.94
2023-03-12T08:23:22.771Z,100035.34
2023-03-12T08:25:52.146Z,100036.19
2023-03-12T08:28:21.152Z,100043.78
2023-03-12T08:30:52.216Z,100046.34
2023-03-12T08:33:20.863Z,100043.47
2023-03-12T08:35:49.767Z,100043.41
2023-03-12T08:38:17.858Z,100041.25
2023-03-12T08:40:45.682Z,100036.78
2023-03-12T08:43:13.725Z,100035.88
2023-03-12T08:45:41.656Z,100038.31
2023-03-12T08:48:10.790Z,100036.41
2023-03-12T08:50:38.518Z,100037.41
2023-03-12T08:53:06.305Z,100040.69
2023-03-12T08:55:34.074Z,100035.13
2023-03-12T08:58:01.836Z,100029.84
2023-03-12T09:00:29.561Z,100031.22
2023-03-12T09:02:58.272Z,100035.25
2023-03-12T09:05:30.051Z,100040.28
2023-03-12T09:07:57.869Z,100033.94
2023-03-12T09:10:30.272Z,100024.06
2023-03-12T09:12:58.394Z,100022.34
2023-03-12T09:15:26.107Z,100026.69
2023-03-12T09:17:54.100Z,100030.53
2023-03-12T09:20:22.126Z,100029.75
2023-03-12T09:22:51.247Z,100028.75
2023-03-12T09:25:19.140Z,100031.38
2023-03-12T09:27:48.561Z,100025.97
2023-03-12T09:30:18.332Z,100033.09
2023-03-12T09:32:46.539Z,100033.59
2023-03-12T09:35:15.607Z,100031.50
2023-03-12T09:37:43.609Z,100033.47
2023-03-12T09:40:17.905Z,100032.16
2023-03-12T09:42:48.865Z,100034.38
2023-03-12T09:45:21.262Z,100033.09
2023-03-12T09:47:51.406Z,100051.19
2023-03-12T09:50:26.269Z,100041.19
2023-03-12T09:52:59.684Z,100043.25
2023-03-12T09:55:32.639Z,100049.34
2023-03-12T09:58:00.272Z,100043.59
2023-03-12T10:00:32.694Z,100051.00
2023-03-12T10:03:29.245Z,100047.81
2023-03-12T10:06:07.506Z,100056.91
2023-03-12T10:08:47.545Z,100053.50
2023-03-12T10:11:28.602Z,100053.25
2023-03-12T10:14:23.846Z,100057.06
2023-03-12T10:17:02.118Z,100056.00
2023-03-12T10:19:45.585Z,100050.50
2023-03-12T10:22:26.566Z,100044.91
2023-03-12T10:25:01.954Z,100050.88
2023-03-12T10:27:35.692Z,100047.94
2023-03-12T10:30:04.794Z,100052.84
2023-03-12T10:32:40.474Z,100043.72
2023-03-12T10:35:18.895Z,100043.34
2023-03-12T10:37:50.172Z,100041.44
2023-03-12T10:40:20.044Z,100047.38
2023-03-12T10:42:49.680Z,100045.41
2023-03-12T10:45:30.719Z,100044.16
2023-03-12T10:48:01.678Z,100040.44
2023-03-12T10:50:30.592Z,100041.72
2023-03-12T10:53:20.079Z,100041.06
2023-03-12T10:56:06.435Z,100041.50
2023-03-12T10:58:37.960Z,100036.59
2023-03-12T11:01:13.340Z,100037.91
2023-03-12T11:03:41.106Z,100043.41
2023-03-12T11:06:15.595Z,100044.66
2023-03-12T11:08:43.554Z,100045.75
2023-03-12T11:11:11.552Z,100040.88
2023-03-12T11:13:42.514Z,100043.78
2023-03-12T11:16:26.910Z,100051.03
2023-03-12T11:19:00.036Z,100040.69
2023-03-12T11:21:28.322Z,100048.44
2023-03-12T11:24:10.222Z,100053.13
2023-03-12T11:26:44.251Z,100060.47
2023-03-12T11:29:23.913Z,100054.56
2023-03-12T11:32:00.358Z,100056.31
2023-03-12T11:34:31.547Z,100044.81
2023-03-12T11:37:08.986Z,100040.38
2023-03-12T11:39:50.206Z,100044.13
2023-03-12T11:42:30.542Z,100033.47
2023-03-12T11:45:07.080Z,100034.13
2023-03-12T11:47:58.461Z,100024.44
2023-03-12T11:50:36.533Z,100024.78
2023-03-12T11:53:35.353Z,100019.44
2023-03-12T11:56:14.579Z,100014.06
2023-03-12T11:59:02.476Z,100025.00
2023-03-12T12:01:44.342Z,100011.69
2023-03-12T12:04:37.484Z,99997.72
2023-03-12T12:07:12.846Z,100001.19
2023-03-12T12:09:48.448Z,100005.00
2023-03-12T12:12:28.650Z,99992.56
2023-03-12T12:15:08.156Z,99990.09
2023-03-12T12:17:53.004Z,99988.44
2023-03-12T12:20:34.580Z,99976.69
2023-03-12T12:23:17.415Z,99990.31
2023-03-12T12:25:54.616Z,99992.84
2023-03-12T12:28:35.802Z,99984.75
2023-03-12T12:31:19.507Z,99991.03
2023-03-12T12:34:03.865Z,99990.91
2023-03-12T12:36:35.783Z,99996.66
2023-03-12T12:39:11.058Z,99984.31
2023-03-12T12:41:43.053Z,99996.81
2023-03-12T12:44:15.038Z,99991.47
2023-03-12T12:46:46.376Z,99982.38
2023-03-12T12:49:22.337Z,99971.28
2023-03-12T12:51:53.688Z,99955.91
2023-03-12T12:54:28.563Z,99974.41
2023-03-12T12:57:03.548Z,99952.09
2023-03-12T12:59:38.350Z,99959.41
2023-03-12T13:02:18.340Z,99952.94
2023-03-12T13:04:48.959Z,99951.94
2023-03-12T13:07:35.510Z,99948.06
2023-03-12T13:10:08.114Z,99934.19
2023-03-12T13:12:44.040Z,99929.19
2023-03-12T13:15:45.208Z,99938.75
2023-03-12T13:18:24.517Z,99926.91
2023-03-12T13:21:18.126Z,99942.50
2023-03-12T13:23:58.749Z,99931.16
2023-03-12T13:26:32.204Z,99919.81
2023-03-12T13:29:14.440Z,99912.28
2023-03-12T13:31:43.446Z,99902.53
2023-03-12T13:34:33.524Z,99915.97
2023-03-12T13:37:04.390Z,99911.47
2023-03-12T13:39:35.036Z,99908.28
2023-03-12T13:42:23.424Z,99897.19
2023-03-12T13:44:52.534Z,99898.38
2023-03-12T13:47:24.221Z,99899.88
2023-03-12T13:49:56.037Z,99914.47
2023-03-12T13:52:27.431Z,99908.78
2023-03-12T13:55:01.744Z,99911.63
2023-03-12T13:57:40.147Z,99910.81
2023-03-12T14:00:16.684Z,99917.50
2023-03-12T14:02:49.441Z,99922.22
2023-03-12T14:05:19.812Z,99919.19
2023-03-12T14:08:09.741Z,99922.38
2023-03-12T14:10:49.400Z,99927.72
2023-03-12T14:13:45.321Z,99923.06
2023-03-12T14:16:23.916Z,99918.66
2023-03-12T14:18:53.736Z,99912.97
2023-03-12T14:21:24.769Z,99931.25
2023-03-12T14:23:57.310Z,99924.63
2023-03-12T14:26:28.436Z,99933.09
2023-03-12T14:29:01.553Z,99933.06
2023-03-12T14:31:31.706Z,99915.69
2023-03-12T14:34:05.175Z,99921.59
2023-03-12T14:36:39.948Z,99921.19
2023-03-12T14:39:20.251Z,99911.25
2023-03-12T14:41:52.957Z,99919.56
2023-03-12T14:44:23.028Z,99918.03
2023-03-12T14:46:58.014Z,99916.50
2023-03-12T14:49:25.927Z,99916.81
2023-03-12T14:51:54.795Z,99920.78
2023-03-12T14:54:26.686Z,99917.56
2023-03-12T14:56:54.646Z,99908.84
2023-03-12T14:59:26.670Z,99907.16
2023-03-12T15:02:00.347Z,99907.31
2023-03-12T15:04:30.798Z,99890.50
2023-03-12T15:07:03.293Z,99891.44
2023-03-12T15:09:36.057Z,99906.16
2023-03-12T15:12:05.188Z,99898.44
2023-03-12T15:14:37.131Z,99904.50
2023-03-12T15:17:06.412Z,99899.72
2023-03-12T15:19:39.514Z,99903.13
2023-03-12T15:22:12.714Z,99902.19
2023-03-12T15:24:41.981Z,99899.97
2023-03-12T15:27:31.286Z,99887.91
2023-03-12T15:30:00.645Z,99891.09
2023-03-12T15:32:31.713Z,99884.94
2023-03-12T15:35:00.087Z,99886.91
2023-03-12T15:37:32.804Z,99899.84
2023-03-12T15:40:06.676Z,99889.34
2023-03-12T15:42:41.215Z,99886.44
2023-03-12T15:45:19.635Z,99882.84
2023-03-12T15:47:48.615Z,99887.94
2023-03-12T15:50:23.188Z,99898.22
2023-03-12T15:53:02.555Z,99893.72
2023-03-12T15:55:33.240Z,99905.00
2023-03-12T15:58:01.740Z,99897.63
2023-03-12T16:00:31.995Z,99896.97
2023-03-12T16:03:01.862Z,99892.13
2023-03-12T16:05:33.235Z,99898.75
2023-03-12T16:08:02.856Z,99899.56
2023-03-12T16:10:37.949Z,99905.78
2023-03-12T16:13:07.589Z,99905.94
2023-03-12T16:15:38.769Z,99912.09
2023-03-12T16:18:12.511Z,99913.53
2023-03-12T16:20:40.537Z,99906.22
2023-03-12T16:23:08.348Z,99902.16
2023-03-12T16:25:37.751Z,99903.16
2023-03-12T16:28:07.516Z,99909.59
2023-03-12T16:30:37.397Z,99910.16
2023-03-12T16:33:09.191Z,99894.16
2023-03-12T16:35:37.510Z,99888.69
2023-03-12T16:38:05.573Z,99900.63
2023-03-12T16:40:35.761Z,99914.38
2023-03-12T16:43:07.088Z,99908.91
2023-03-12T16:45:37.509Z,99901.19
2023-03-12T16:48:07.408Z,99905.81
2023-03-12T16:50:35.273Z,99922.41
2023-03-12T16:53:04.645Z,99928.16
2023-03-12T16:55:44.059Z,99922.97
2023-03-12T16:58:16.529Z,99908.38
2023-03-12T17:00:45.242Z,99921.97
2023-03-12T17:03:28.433Z,99923.22
2023-03-12T17:05:56.557Z,99928.88
2023-03-12T17:08:24.384Z,99939.41
2023-03-12T17:10:52.943Z,99936.31
2023-03-12T17:13:25.133Z,99951.03
2023-03-12T17:15:53.772Z,99947.78
2023-03-12T17:18:22.332Z,99947.25
2023-03-12T17:20:51.748Z,99952.41
2023-03-12T17:23:19.966Z,99951.88
2023-03-12T17:25:48.070Z,99960.28
2023-03-12T17:28:16.286Z,99959.72
2023-03-12T17:30:47.315Z,99955.38
2023-03-12T17:33:19.929Z,99956.78
2023-03-12T17:35:47.860Z,99965.31
2023-03-12T17:38:15.656Z,99958.59
2023-03-12T17:40:44.745Z,99958.13
2023-03-12T17:43:12.993Z,99973.44
2023-03-12T17:45:41.970Z,99964.72
2023-03-12T17:48:11.217Z,99967.69
2023-03-12T17:50:40.515Z,99978.47
2023-03-12T17:53:08.670Z,99987.59
2023-03-12T17:55:38.023Z,99991.50
2023-03-12T17:58:07.085Z,100006.78
2023-03-12T18:00:35.450Z,99993.72
2023-03-12T18:03:03.495Z,99995.81
2023-03-12T18:05:32.712Z,99988.22
2023-03-12T18:08:00.612Z,99993.25
2023-03-12T18:10:28.560Z,99996.34
2023-03-12T18:12:56.381Z,99986.22
2023-03-12T18:15:24.128Z,99985.25
2023-03-12T18:17:53.263Z,99980.06
2023-03-12T18:20:35.836Z,99970.66
2023-03-12T18:23:06.804Z,99969.09
2023-03-12T18:25:34.584Z,99968.00
2023-03-12T18:28:02.339Z,99958.59
2023-03-12T18:30:30.168Z,99965.00
2023-03-12T18:32:58.807Z,99974.09
2023-03-12T18:35:28.882Z,99976.19
2023-03-12T18:37:56.788Z,99974.53
2023-03-12T18:40:27.544Z,99982.91
2023-03-12T18:42:58.569Z,99979.00
2023-03-12T18:45:26.551Z,99979.84
2023-03-12T18:47:54.262Z,99982.63
2023-03-12T18:50:22.259Z,99972.25
2023-03-12T18:52:50.171Z,99971.69
2023-03-12T18:55:18.361Z,99971.94
2023-03-12T18:57:47.658Z,99980.31
2023-03-12T19:00:18.281Z,99976.38
2023-03-12T19:02:47.986Z,99972.28
2023-03-12T19:05:16.654Z,99974.22
2023-03-12T19:07:44.557Z,99970.94
2023-03-12T19:10:13.408Z,99979.06
2023-03-12T19:12:54.906Z,99981.88
2023-03-12T19:15:25.049Z,99985.63
2023-03-12T19:17:54.104Z,99985.47
2023-03-12T19:20:22.566Z,99979.75
2023-03-12T19:22:50.336Z,99988.31
2023-03-12T19:25:18.437Z,99983.56
2023-03-12T19:27:46.226Z,99984.16
2023-03-12T19:30:14.733Z,99982.22
2023-03-12T19:32:44.784Z,99978.69
2023-03-12T19:35:14.244Z,99984.88
2023-03-12T19:37:42.301Z,99975.19
2023-03-12T19:40:13.305Z,99980.25
2023-03-12T19:42:41.436Z,99985.28
2023-03-12T19:45:10.496Z,99980.97
2023-03-12T19:47:38.352Z,99991.34
2023-03-12T19:50:08.327Z,99981.50
2023-03-12T19:52:36.126Z,99974.78
2023-03-12T19:55:05.713Z,99981.09
2023-03-12T19:57:33.697Z,99976.88
2023-03-12T20:00:01.429Z,99979.00
2023-03-12T20:02:29.593Z,99988.94
2023-03-12T20:04:57.561Z,99989.06
2023-03-12T20:07:26.950Z,99987.38
2023-03-12T20:09:54.680Z,99999.03
2023-03-12T20:12:22.388Z,99992.56
2023-03-12T20:14:50.198Z,99987.84
2023-03-12T20:17:18.040Z,99992.31
2023-03-12T20:19:45.936Z,99987.97
2023-03-12T20:22:13.901Z,99979.13
2023-03-12T20:24:43.008Z,99982.75
2023-03-12T20:27:10.807Z,99970.44
2023-03-12T20:29:38.712Z,99978.44
2023-03-12T20:32:06.576Z,99970.84
2023-03-12T20:34:34.364Z,99970.56
2023-03-12T20:37:02.098Z,99964.66
2023-03-12T20:39:29.898Z,99963.34
2023-03-12T20:41:58.978Z,99975.41
2023-03-12T20:44:27.017Z,99974.22
2023-03-12T20:46:54.735Z,99978.09
2023-03-12T20:49:22.545Z,99968.94
2023-03-12T20:51:50.247Z,99956.03
2023-03-12T20:54:18.031Z,99953.78
2023-03-12T20:56:45.780Z,99952.34
2023-03-12T20:59:15.234Z,99953.44
2023-03-12T21:01:43.068Z,99958.91
2023-03-12T21:04:11.023Z,99952.00
2023-03-12T21:06:38.823Z,99960.28
2023-03-12T21:09:07.270Z,99946.25
2023-03-12T21:11:35.821Z,99950.00
2023-03-12T21:14:03.570Z,99951.94
2023-03-12T21:16:32.813Z,99940.03
2023-03-12T21:19:00.570Z,99946.44
2023-03-12T21:21:28.818Z,99947.81
2023-03-12T21:23:56.545Z,99942.84
2023-03-12T21:26:24.348Z,99945.19
2023-03-12T21:28:52.099Z,99936.50
2023-03-12T21:31:19.941Z,99930.59
2023-03-12T21:33:49.308Z,99930.00
2023-03-12T21:36:17.378Z,99934.59
2023-03-12T21:38:45.095Z,99933.88
2023-03-12T21:41:14.760Z,99920.84
2023-03-12T21:43:43.088Z,99920.84
2023-03-12T21:46:12.457Z,99919.16
2023-03-12T21:48:41.036Z,99911.31
2023-03-12T21:51:11.946Z,99901.91
2023-03-12T21:53:40.052Z,99902.28
2023-03-12T21:56:09.348Z,99902.69
2023-03-12T21:58:37.832Z,99895.06
2023-03-12T22:01:08.707Z,99886.53
2023-03-12T22:03:36.741Z,99881.44
2023-03-12T22:06:06.091Z,99885.94
2023-03-12T22:08:35.850Z,99874.47
2023-03-12T22:11:04.287Z,99881.34
2023-03-12T22:13:32.223Z,99879.63
2023-03-12T22:16:01.602Z,99872.66
2023-03-12T22:18:30.484Z,99874.47
2023-03-12T22:21:00.734Z,99874.47
2023-03-12T22:23:29.043Z,99875.31
2023-03-12T22:26:01.375Z,99875.31
2023-03-12T22:28:29.176Z,99877.97
2023-03-12T22:31:00.596Z,99872.66
2023-03-12T22:33:29.158Z,99876.13
2023-03-12T22:35:57.467Z,99873.34
2023-03-12T22:38:25.551Z,99876.84
2023-03-12T22:40:55.690Z,99870.59
2023-03-12T22:43:26.425Z,99850.16
2023-03-12T22:45:54.587Z,99845.44
2023-03-12T22:48:22.326Z,99853.41
2023-03-12T22:50:54.334Z,99861.22
2023-03-12T22:53:22.258Z,99854.97
2023-03-12T22:55:57.929Z,99848.66
2023-03-12T22:58:27.380Z,99838.03
2023-03-12T23:00:59.974Z,99837.91
2023-03-12T23:03:28.074Z,99835.13
2023-03-12T23:05:55.873Z,99833.19
2023-03-12T23:08:24.255Z,99833.06
2023-03-12T23:10:53.384Z,99829.56
2023-03-12T23:13:21.296Z,99833.91
2023-03-12T23:15:50.782Z,99839.09
2023-03-12T23:18:19.337Z,99841.88
2023-03-12T23:20:47.147Z,99841.03
2023-03-12T23:23:16.584Z,99838.09
2023-03-12T23:25:44.362Z,99835.06
2023-03-12T23:28:12.099Z,99836.03
2023-03-12T23:30:39.813Z,99834.38
2023-03-12T23:33:08.894Z,99834.22
2023-03-12T23:35:36.670Z,99825.16
2023-03-12T23:38:06.145Z,99825.00
2023-03-12T23:40:33.907Z,99815.34
2023-03-12T23:43:01.631Z,99811.88
2023-03-12T23:45:29.369Z,99808.34
2023-03-12T23:47:57.077Z,99804.72
2023-03-12T23:50:26.223Z,99810.75
2023-03-12T23:52:55.218Z,99798.41
2023-03-12T23:55:22.966Z,99797.59
2023-03-12T23:57:50.656Z,99794.94
